Time;durP1;ratioP1;P1;durP2;ratioP2;P2;SDS_P1;SDS_P2;PMS_P1;PMS_P2;Temp;Humidity;BMP_temperature;BMP_pressure;BME280_temperature;BME280_humidity;BME280_pressure;Samples;Min_cycle;Max_cycle;Signal;HPM_P1;HPM_P2
2022/11/09 00:02:00;;;;;;;25.73;13.60;;;;;;;9.97;71.96;98577.34;5051857;28;20028;-70
2022/11/09 00:04:26;;;;;;;24.45;13.70;;;;;;;9.96;71.61;98586.66;5052492;28;20059;-70
2022/11/09 00:06:51;;;;;;;24.30;13.48;;;;;;;9.96;72.16;98577.63;5070125;28;20123;-70
2022/11/09 00:09:17;;;;;;;21.05;13.88;;;;;;;9.96;71.83;98581.19;5070223;28;20060;-70
2022/11/09 00:11:42;;;;;;;23.40;13.20;;;;;;;9.96;71.38;98578.44;5069591;28;20032;-70
2022/11/09 00:14:13;;;;;;;21.83;12.65;;;;;;;9.96;71.46;98581.19;5069804;28;20078;-70
2022/11/09 00:16:39;;;;;;;21.63;12.25;;;;;;;9.95;71.45;98579.53;5070327;28;20024;-70
2022/11/09 00:19:04;;;;;;;23.25;12.85;;;;;;;9.95;71.09;98578.75;5070053;28;20054;-70
2022/11/09 00:21:29;;;;;;;21.45;12.02;;;;;;;9.97;71.61;98573.78;5069039;28;20085;-70
2022/11/09 00:23:56;;;;;;;28.88;15.38;;;;;;;9.98;71.44;98578.16;5069924;28;20361;-70
2022/11/09 00:26:21;;;;;;;23.05;12.73;;;;;;;9.96;71.39;98564.75;5070087;28;20047;-70
2022/11/09 00:28:48;;;;;;;21.67;12.95;;;;;;;9.96;70.70;98574.91;5071163;28;20028;-70
2022/11/09 00:31:20;;;;;;;20.17;12.00;;;;;;;9.98;71.66;98569.94;5069692;28;20036;-70
2022/11/09 00:33:50;;;;;;;22.17;12.90;;;;;;;9.98;71.07;98565.28;5069346;28;20032;-70
2022/11/09 00:36:16;;;;;;;22.05;12.27;;;;;;;10.00;71.84;98567.72;5069868;28;20028;-70
2022/11/09 00:38:41;;;;;;;20.70;12.25;;;;;;;10.00;71.17;98573.19;5070177;28;20047;-70
2022/11/09 00:41:09;;;;;;;18.55;11.98;;;;;;;10.03;71.53;98569.06;5069094;28;20480;-70
2022/11/09 00:43:35;;;;;;;24.33;14.30;;;;;;;10.04;71.44;98563.28;5069380;28;20566;-70
2022/11/09 00:46:01;;;;;;;21.63;13.10;;;;;;;10.04;71.35;98565.22;5069819;28;20103;-70
2022/11/09 00:48:26;;;;;;;21.15;12.27;;;;;;;10.06;70.74;98568.50;5069980;28;20103;-70
2022/11/09 00:50:53;;;;;;;22.08;12.95;;;;;;;10.06;70.83;98566.56;5069481;28;20025;-70
2022/11/09 00:53:20;;;;;;;23.80;13.02;;;;;;;10.07;70.81;98565.44;5069536;28;20332;-70
2022/11/09 00:56:08;;;;;;;20.13;11.93;;;;;;;10.07;71.25;98565.44;5070662;28;20373;-69
2022/11/09 00:58:35;;;;;;;19.50;11.70;;;;;;;10.09;70.79;98568.72;5069599;28;20111;-70
2022/11/09 01:01:12;;;;;;;20.65;12.25;;;;;;;10.09;71.15;98576.94;5069930;28;20021;-69
2022/11/09 01:03:38;;;;;;;21.83;12.43;;;;;;;10.11;70.55;98573.91;5069179;28;20070;-69
2022/11/09 01:06:04;;;;;;;20.23;11.95;;;;;;;10.12;70.52;98568.13;5069879;28;20017;-69
2022/11/09 01:08:31;;;;;;;21.95;12.25;;;;;;;10.11;70.45;98561.03;5067688;28;20025;-70
2022/11/09 01:10:56;;;;;;;21.42;12.07;;;;;;;10.12;70.40;98557.19;5069299;28;20047;-70
2022/11/09 01:13:21;;;;;;;21.10;12.77;;;;;;;10.11;71.31;98558.28;5050922;28;20072;-70
2022/11/09 01:15:52;;;;;;;19.77;12.30;;;;;;;10.12;69.96;98565.41;5070096;28;20032;-69
2022/11/09 01:18:19;;;;;;;21.35;12.13;;;;;;;10.12;70.56;98556.38;5069657;28;20066;-70
2022/11/09 01:20:47;;;;;;;23.00;12.10;;;;;;;10.13;70.97;98560.75;5051018;28;20472;-70
2022/11/09 01:23:15;;;;;;;22.67;12.45;;;;;;;10.12;70.75;98551.69;5068896;28;20022;-70
2022/11/09 01:25:40;;;;;;;21.13;12.77;;;;;;;10.13;70.60;98556.06;5068829;28;20109;-70
2022/11/09 01:28:07;;;;;;;21.67;13.15;;;;;;;10.12;70.41;98550.91;5069896;28;20025;-70
2022/11/09 01:30:34;;;;;;;21.92;12.07;;;;;;;10.11;70.88;98549.25;5068516;28;20464;-70
2022/11/09 01:33:06;;;;;;;20.85;12.35;;;;;;;10.08;70.42;98545.16;5069004;28;20060;-70
2022/11/09 01:35:33;;;;;;;23.75;12.45;;;;;;;10.07;70.74;98543.53;5069030;28;20031;-69
2022/11/09 01:37:58;;;;;;;21.85;12.93;;;;;;;10.06;70.58;98541.09;5069535;28;20093;-70
2022/11/09 01:40:26;;;;;;;25.30;12.63;;;;;;;10.07;70.81;98545.47;5068603;28;20024;-70
2022/11/09 01:42:51;;;;;;;21.33;12.00;;;;;;;10.06;70.53;98543.84;5068904;28;20052;-69
2022/11/09 01:45:17;;;;;;;22.42;12.07;;;;;;;10.05;70.26;98540.25;5069642;28;20016;-69
2022/11/09 01:47:45;;;;;;;19.17;11.38;;;;;;;10.05;70.38;98543.00;5051227;28;20224;-70
2022/11/09 01:50:12;;;;;;;21.17;12.80;;;;;;;10.06;70.43;98555.59;5068571;28;20029;-70
2022/11/09 01:52:43;;;;;;;23.80;13.85;;;;;;;10.06;70.26;98547.38;5069019;28;20049;-70
2022/11/09 01:55:12;;;;;;;22.20;12.43;;;;;;;10.07;70.60;98548.19;5068563;28;20033;-70
2022/11/09 01:57:42;;;;;;;22.75;13.10;;;;;;;10.06;70.46;98541.88;5069131;28;20035;-69
2022/11/09 02:00:14;;;;;;;22.35;13.00;;;;;;;10.05;69.88;98539.47;5068160;28;20037;-69
2022/11/09 02:02:45;;;;;;;24.65;13.82;;;;;;;10.02;70.23;98535.34;5068591;28;20035;-70
2022/11/09 02:05:15;;;;;;;25.10;14.13;;;;;;;9.96;70.93;98539.28;5068921;28;20646;-70
2022/11/09 02:07:42;;;;;;;23.98;14.15;;;;;;;9.92;70.54;98535.50;5068145;28;20025;-70
2022/11/09 02:10:18;;;;;;;26.73;15.43;;;;;;;9.88;70.47;98543.44;5068532;28;20035;-70
2022/11/09 02:12:44;;;;;;;26.13;15.75;;;;;;;9.85;70.17;98535.81;5067830;28;20020;-69
2022/11/09 02:15:11;;;;;;;30.67;17.35;;;;;;;9.85;70.81;98545.97;5065926;28;20519;-70
2022/11/09 02:17:38;;;;;;;29.17;16.27;;;;;;;9.85;70.63;98543.22;5067598;28;20025;-69
2022/11/09 02:20:14;;;;;;;28.58;15.25;;;;;;;9.84;70.66;98536.91;5068075;28;20020;-70
2022/11/09 02:22:40;;;;;;;29.60;16.05;;;;;;;9.83;71.12;98532.53;5067778;28;20494;-70
2022/11/09 02:25:08;;;;;;;28.70;15.35;;;;;;;9.80;70.77;98533.94;5066886;28;20053;-70
2022/11/09 02:27:34;;;;;;;29.27;16.00;;;;;;;9.79;70.62;98526.00;5067961;28;20052;-70
2022/11/09 02:30:01;;;;;;;27.17;14.75;;;;;;;9.81;70.58;98534.75;5067774;28;20024;-70
2022/11/09 02:32:29;;;;;;;28.90;15.77;;;;;;;9.83;70.48;98538.84;5067987;28;20476;-70
2022/11/09 02:34:55;;;;;;;29.67;16.08;;;;;;;9.83;70.83;98540.75;5068002;28;20087;-70
2022/11/09 02:37:38;;;;;;;29.17;15.65;;;;;;;9.79;70.78;98546.00;5068164;28;20158;-70
2022/11/09 02:40:11;;;;;;;30.38;16.73;;;;;;;9.77;71.10;98547.41;5067294;28;20025;-70
2022/11/09 02:42:37;;;;;;;32.78;17.33;;;;;;;9.73;70.62;98546.34;5067103;28;20054;-70
2022/11/09 02:45:03;;;;;;;29.17;17.17;;;;;;;9.67;70.42;98538.19;5067253;28;20040;-69
2022/11/09 02:47:28;;;;;;;32.03;16.52;;;;;;;9.60;70.52;98529.47;5067827;28;20028;-70
2022/11/09 02:49:56;;;;;;;29.17;15.02;;;;;;;9.56;70.21;98544.84;5067064;28;20028;-70
2022/11/09 02:52:22;;;;;;;31.30;15.88;;;;;;;9.52;70.67;98539.16;5047225;28;20481;-70
2022/11/09 02:54:47;;;;;;;26.70;15.45;;;;;;;9.48;70.29;98542.72;5065405;28;20024;-70
2022/11/09 02:57:13;;;;;;;26.65;15.02;;;;;;;9.45;70.44;98537.81;5067360;28;20043;-70
2022/11/09 02:59:38;;;;;;;27.02;14.57;;;;;;;9.45;71.25;98543.28;5065634;28;20104;-71
2022/11/09 03:02:04;;;;;;;25.63;15.82;;;;;;;9.44;70.50;98539.75;5067792;28;20023;-70
2022/11/09 03:04:29;;;;;;;27.08;14.80;;;;;;;9.44;71.07;98545.22;5067994;28;20384;-70
2022/11/09 03:06:54;;;;;;;26.80;15.07;;;;;;;9.45;71.69;98546.03;5069157;28;20032;-70
2022/11/09 03:09:20;;;;;;;24.35;14.25;;;;;;;9.45;71.55;98552.34;5068310;28;20036;-70
2022/11/09 03:11:45;;;;;;;26.85;14.95;;;;;;;9.47;71.77;98546.56;5068190;28;20025;-71
2022/11/09 03:14:11;;;;;;;26.85;14.63;;;;;;;9.48;71.58;98537.25;5064918;28;20021;-70
2022/11/09 03:16:37;;;;;;;25.95;14.65;;;;;;;9.49;71.76;98539.72;5068929;28;20028;-70
2022/11/09 03:19:03;;;;;;;33.30;17.10;;;;;;;9.49;71.97;98544.38;5065979;28;20035;-70
2022/11/09 03:21:29;;;;;;;28.45;16.23;;;;;;;9.52;71.59;98546.53;5066074;28;20024;-70
2022/11/09 03:23:54;;;;;;;25.90;14.27;;;;;;;9.52;72.03;98535.56;5069631;28;20147;-70
2022/11/09 03:26:20;;;;;;;28.13;14.65;;;;;;;9.52;71.94;98530.94;5065755;28;20507;-70
2022/11/09 03:28:46;;;;;;;27.80;15.15;;;;;;;9.55;71.81;98528.72;5051184;28;20043;-70
2022/11/09 03:31:12;;;;;;;25.88;15.23;;;;;;;9.55;71.83;98528.72;5066554;28;20024;-70
2022/11/09 03:33:37;;;;;;;26.70;15.77;;;;;;;9.52;71.62;98528.19;5068665;28;20107;-70
2022/11/09 03:36:03;;;;;;;26.05;15.80;;;;;;;9.50;71.95;98521.34;5066743;28;20033;-70
2022/11/09 03:38:29;;;;;;;26.02;14.65;;;;;;;9.51;71.81;98526.56;5049785;28;20206;-70
2022/11/09 03:40:54;;;;;;;26.63;14.80;;;;;;;9.51;72.17;98523.81;5068651;28;20383;-70
2022/11/09 03:43:20;;;;;;;28.83;15.10;;;;;;;9.51;71.86;98523.81;5068962;28;20029;-71
2022/11/09 03:45:46;;;;;;;28.00;15.68;;;;;;;9.52;72.03;98510.94;5068083;28;20028;-70
2022/11/09 03:48:12;;;;;;;28.10;15.32;;;;;;;9.53;71.99;98516.13;5067238;28;20035;-70
2022/11/09 03:50:39;;;;;;;28.55;15.25;;;;;;;9.53;72.42;98513.41;5067558;28;20036;-70
2022/11/09 03:53:06;;;;;;;25.45;14.65;;;;;;;9.51;72.26;98521.09;5068733;28;20020;-70
2022/11/09 03:55:31;;;;;;;26.40;14.57;;;;;;;9.50;71.88;98513.16;5069553;28;20047;-70
2022/11/09 03:57:57;;;;;;;26.45;14.82;;;;;;;9.52;72.73;98508.19;5072095;28;20468;-71
2022/11/09 04:00:22;;;;;;;30.30;16.90;;;;;;;9.53;72.26;98518.88;5071086;28;20040;-70
2022/11/09 04:02:48;;;;;;;27.83;15.85;;;;;;;9.55;71.66;98512.31;5072822;28;20024;-70
2022/11/09 04:05:14;;;;;;;30.33;15.93;;;;;;;9.56;72.79;98512.00;5069350;28;20043;-70
2022/11/09 04:07:44;;;;;;;26.92;14.23;;;;;;;9.58;72.15;98511.72;5071851;28;20034;-70
2022/11/09 04:10:10;;;;;;;25.95;14.80;;;;;;;9.60;72.62;98504.00;5068014;28;20060;-71
2022/11/09 04:12:35;;;;;;;27.73;14.55;;;;;;;9.60;72.02;98502.09;5071455;28;20064;-70
2022/11/09 04:15:01;;;;;;;26.33;15.10;;;;;;;9.62;72.44;98496.31;5072151;28;20034;-70
2022/11/09 04:17:26;;;;;;;27.33;15.55;;;;;;;9.62;72.18;98499.91;5072079;28;20662;-70
2022/11/09 04:19:51;;;;;;;28.63;15.77;;;;;;;9.62;72.13;98497.16;5072704;28;20043;-70
2022/11/09 04:22:16;;;;;;;26.73;15.07;;;;;;;9.64;72.62;98499.59;5072208;28;20041;-70
2022/11/09 04:24:42;;;;;;;29.45;15.40;;;;;;;9.64;72.55;98492.22;5071030;28;20112;-70
2022/11/09 04:27:07;;;;;;;25.65;14.02;;;;;;;9.67;72.61;98501.75;5070594;28;20047;-71
2022/11/09 04:29:33;;;;;;;28.13;14.10;;;;;;;9.68;72.31;98492.44;5069747;28;20039;-70
2022/11/09 04:31:58;;;;;;;25.00;14.13;;;;;;;9.72;72.84;98496.22;5072637;28;20066;-70
2022/11/09 04:34:23;;;;;;;25.63;13.57;;;;;;;9.72;72.28;98488.00;5071137;28;20028;-70
2022/11/09 04:36:49;;;;;;;25.23;13.98;;;;;;;9.75;72.41;98487.44;5071915;28;20058;-70
2022/11/09 04:39:14;;;;;;;25.33;13.88;;;;;;;9.78;73.15;98503.28;5071730;28;20460;-70
2022/11/09 04:41:40;;;;;;;23.83;13.68;;;;;;;9.79;72.44;98496.72;5066965;28;20025;-69
2022/11/09 04:44:05;;;;;;;26.17;14.07;;;;;;;9.81;71.87;98491.75;5072049;28;20020;-70
2022/11/09 04:46:31;;;;;;;28.85;15.68;;;;;;;9.87;72.36;98494.44;5071691;28;20067;-70
2022/11/09 04:48:56;;;;;;;26.83;15.45;;;;;;;9.86;72.18;98487.34;5070605;28;20099;-70
2022/11/09 04:51:22;;;;;;;26.55;14.85;;;;;;;9.87;72.56;98492.50;5067769;28;20036;-70
2022/11/09 04:53:47;;;;;;;24.25;13.95;;;;;;;9.90;72.42;98491.94;5070447;28;20131;-70
2022/11/09 04:56:13;;;;;;;24.92;14.52;;;;;;;9.89;71.41;98492.22;5056826;28;20024;-70
2022/11/09 04:58:38;;;;;;;24.67;13.98;;;;;;;9.89;72.53;98487.56;5057322;28;20388;-70
2022/11/09 05:01:09;;;;;;;25.70;14.07;;;;;;;9.89;72.05;98484.81;5065595;28;20033;-70
2022/11/09 05:03:35;;;;;;;24.02;14.02;;;;;;;9.89;72.27;98486.75;5069867;28;20483;-70
2022/11/09 05:06:30;;;;;;;25.58;14.05;;;;;;;9.89;72.00;98484.00;5069497;28;20051;-70
2022/11/09 05:08:46;;;;;;;26.40;14.07;;;;;;;9.86;71.98;98484.59;5068850;28;20063;-70
2022/11/09 05:11:11;;;;;;;25.25;14.50;;;;;;;9.85;71.88;98480.22;5070393;28;20109;-70
2022/11/09 05:13:36;;;;;;;23.73;14.23;;;;;;;9.82;71.98;98485.19;5036192;28;20020;-70
2022/11/09 05:16:02;;;;;;;28.13;15.45;;;;;;;9.80;72.21;98494.78;5070461;28;20060;-70
2022/11/09 05:18:27;;;;;;;25.10;14.10;;;;;;;9.77;72.44;98496.19;5071631;28;20039;-70
2022/11/09 05:20:57;;;;;;;25.85;14.88;;;;;;;9.75;72.31;98498.38;5068772;28;20507;-70
2022/11/09 05:26:06;;;;;;;24.73;14.00;;;;;;;9.73;72.26;98499.81;5070313;28;20582;-71
2022/11/09 05:28:31;;;;;;;28.00;15.20;;;;;;;9.70;72.66;98495.69;5070771;28;20464;-70
2022/11/09 05:30:57;;;;;;;25.05;14.52;;;;;;;9.70;72.71;98495.69;5050074;28;20021;-71
2022/11/09 05:33:22;;;;;;;29.40;15.65;;;;;;;9.67;72.73;98497.09;5069074;28;20108;-70
2022/11/09 05:35:47;;;;;;;25.90;14.80;;;;;;;9.64;72.09;98500.41;5069661;28;20052;-70
2022/11/09 05:38:13;;;;;;;27.45;14.95;;;;;;;9.64;72.38;98511.38;5052901;28;20028;-70
2022/11/09 05:40:38;;;;;;;26.95;14.60;;;;;;;9.64;72.50;98505.06;5068146;28;20024;-71
2022/11/09 05:43:03;;;;;;;25.83;15.15;;;;;;;9.63;72.82;98507.00;5068817;28;20025;-71
2022/11/09 05:45:29;;;;;;;27.33;14.70;;;;;;;9.63;72.59;98501.53;5067709;28;20567;-70
2022/11/09 05:47:55;;;;;;;25.50;14.82;;;;;;;9.64;72.72;98511.38;5068322;28;20539;-70
2022/11/09 05:50:20;;;;;;;26.30;15.18;;;;;;;9.64;72.25;98511.38;5067972;28;20123;-70
2022/11/09 05:52:45;;;;;;;26.38;15.00;;;;;;;9.66;72.64;98505.59;5067080;28;20063;-69
2022/11/09 05:55:11;;;;;;;28.35;14.80;;;;;;;9.65;72.20;98506.69;5050993;28;20035;-70
2022/11/09 05:57:36;;;;;;;25.75;13.93;;;;;;;9.65;72.60;98509.44;5071230;28;20464;-70
2022/11/09 06:00:03;;;;;;;25.13;14.27;;;;;;;9.65;72.17;98517.66;5068414;28;20491;-70
2022/11/09 06:02:32;;;;;;;28.23;15.15;;;;;;;9.67;72.45;98518.19;5069150;28;20502;-70
2022/11/09 06:04:58;;;;;;;27.75;15.45;;;;;;;9.68;72.96;98525.28;5069458;28;20311;-70
2022/11/09 06:07:23;;;;;;;26.92;14.38;;;;;;;9.68;72.19;98525.28;5068140;28;20099;-70
2022/11/09 06:09:49;;;;;;;28.75;15.80;;;;;;;9.68;72.08;98528.03;5051362;28;20123;-70
2022/11/09 06:12:14;;;;;;;27.70;15.43;;;;;;;9.70;72.49;98527.75;5069050;28;20036;-70
2022/11/09 06:14:39;;;;;;;27.55;14.43;;;;;;;9.72;72.47;98528.28;5068086;28;20032;-70
2022/11/09 06:17:05;;;;;;;28.45;14.95;;;;;;;9.73;72.42;98524.44;5068239;28;20055;-70
2022/11/09 06:19:30;;;;;;;27.33;14.13;;;;;;;9.76;72.87;98527.41;5070208;28;20028;-70
2022/11/09 06:21:55;;;;;;;24.55;13.20;;;;;;;9.78;72.50;98524.41;5050809;28;20081;-70
2022/11/09 06:24:21;;;;;;;25.85;13.88;;;;;;;9.80;72.14;98525.72;5069508;28;20768;-70
2022/11/09 06:26:46;;;;;;;25.48;13.93;;;;;;;9.85;72.19;98533.06;5071250;28;20440;-70
2022/11/09 06:29:12;;;;;;;24.88;13.40;;;;;;;9.85;71.63;98537.75;5088716;28;20094;-70
2022/11/09 06:31:37;;;;;;;23.50;13.35;;;;;;;9.89;72.45;98547.03;5087550;28;20047;-70
2022/11/09 06:34:03;;;;;;;26.27;13.75;;;;;;;9.91;72.53;98540.13;5089061;28;20058;-70
2022/11/09 06:36:28;;;;;;;23.38;13.43;;;;;;;9.94;71.77;98536.00;5088723;28;20035;-70
2022/11/09 06:38:53;;;;;;;24.10;13.57;;;;;;;9.95;72.25;98532.16;5089616;28;20024;-70
2022/11/09 06:41:19;;;;;;;22.33;12.80;;;;;;;9.98;71.80;98531.59;5090286;28;20028;-70
2022/11/09 06:43:44;;;;;;;22.00;12.50;;;;;;;10.03;72.01;98531.50;5089597;28;20035;-69
2022/11/09 06:46:11;;;;;;;22.30;12.90;;;;;;;10.05;71.81;98532.03;5088535;28;20119;-70
2022/11/09 06:48:37;;;;;;;24.30;13.32;;;;;;;10.07;71.83;98535.31;5086218;28;20058;-69
2022/11/09 06:51:04;;;;;;;24.00;13.13;;;;;;;10.12;71.25;98532.50;5088049;28;20040;-69
2022/11/09 06:53:32;;;;;;;23.27;12.98;;;;;;;10.16;71.89;98526.44;5088392;28;20024;-69
2022/11/09 06:55:59;;;;;;;24.75;13.20;;;;;;;10.19;71.55;98528.59;5089712;28;20515;-69
2022/11/09 06:58:25;;;;;;;22.60;12.88;;;;;;;10.21;71.77;98523.66;5088012;28;20097;-69
2022/11/09 07:00:50;;;;;;;21.75;12.27;;;;;;;10.26;71.68;98529.06;5088666;28;20118;-70
2022/11/09 07:03:18;;;;;;;21.50;12.13;;;;;;;10.32;71.52;98524.34;5088004;28;20507;-69
2022/11/09 07:05:44;;;;;;;20.85;11.80;;;;;;;10.34;71.34;98520.22;5090001;28;20043;-68
2022/11/09 07:08:10;;;;;;;22.67;13.23;;;;;;;10.38;70.87;98518.53;5088615;28;20032;-69
2022/11/09 07:10:36;;;;;;;26.73;14.65;;;;;;;10.40;71.48;98516.31;5089533;28;20101;-70
2022/11/09 07:13:02;;;;;;;25.35;12.63;;;;;;;10.45;71.77;98512.69;5088288;28;20456;-69
2022/11/09 07:15:27;;;;;;;25.05;12.40;;;;;;;10.50;70.90;98509.06;5088748;28;20410;-69
2022/11/09 07:17:57;;;;;;;22.30;12.02;;;;;;;10.53;71.27;98511.22;5088614;28;20016;-70
2022/11/09 07:20:23;;;;;;;19.48;11.15;;;;;;;10.59;70.49;98507.31;5086866;28;20028;-71
2022/11/09 07:22:49;;;;;;;24.13;12.43;;;;;;;10.63;70.80;98505.59;5088562;28;20024;-70
2022/11/09 07:25:15;;;;;;;22.38;12.18;;;;;;;10.65;70.38;98513.53;5085359;28;20024;-69
2022/11/09 07:27:40;;;;;;;24.27;11.98;;;;;;;10.66;70.85;98507.75;5064335;28;20128;-71
2022/11/09 07:30:06;;;;;;;24.70;12.93;;;;;;;10.74;70.69;98516.44;5070033;28;20033;-69
2022/11/09 07:32:33;;;;;;;21.00;11.77;;;;;;;10.78;70.21;98518.28;5072083;28;20035;-69
2022/11/09 07:34:59;;;;;;;20.10;11.52;;;;;;;10.82;70.20;98515.75;5072217;28;20023;-69
2022/11/09 07:37:24;;;;;;;23.38;12.43;;;;;;;10.86;69.90;98508.56;5072982;28;20029;-68
2022/11/09 07:39:49;;;;;;;22.73;12.43;;;;;;;10.90;70.36;98509.59;5072990;28;20106;-69
2022/11/09 07:42:15;;;;;;;24.02;12.85;;;;;;;10.96;69.52;98513.09;5072448;28;20028;-70
2022/11/09 07:44:40;;;;;;;22.15;12.90;;;;;;;10.99;69.78;98518.78;5071920;28;20059;-70
2022/11/09 07:47:06;;;;;;;24.30;12.80;;;;;;;11.04;69.92;98515.16;5072483;28;20031;-69
2022/11/09 07:49:31;;;;;;;21.77;12.40;;;;;;;11.07;70.19;98522.78;5072497;28;20041;-72
2022/11/09 07:51:57;;;;;;;25.10;12.38;;;;;;;11.12;69.78;98516.41;5072655;28;20020;-71
2022/11/09 07:54:22;;;;;;;23.48;13.05;;;;;;;11.17;69.88;98514.41;5071923;28;20024;-71
2022/11/09 07:56:47;;;;;;;20.98;12.30;;;;;;;11.19;69.63;98514.13;5071365;28;20013;-71
2022/11/09 07:59:13;;;;;;;25.45;12.77;;;;;;;11.24;68.94;98522.25;5072809;28;20111;-71
2022/11/09 08:01:38;;;;;;;22.33;12.77;;;;;;;11.27;69.44;98526.34;5069778;28;20380;-72
2022/11/09 08:04:05;;;;;;;22.65;12.60;;;;;;;11.28;69.05;98534.25;5072232;28;20032;-71
2022/11/09 08:06:30;;;;;;;23.05;13.05;;;;;;;11.32;69.30;98520.78;5068294;28;20036;-71
2022/11/09 08:08:56;;;;;;;23.52;13.00;;;;;;;11.36;68.65;98521.81;5070018;28;20036;-71
2022/11/09 08:11:22;;;;;;;20.08;11.95;;;;;;;11.39;68.81;98525.88;5070923;28;20477;-73
2022/11/09 08:13:48;;;;;;;20.83;12.30;;;;;;;11.42;68.55;98519.78;5071607;28;20103;-71
2022/11/09 08:16:13;;;;;;;21.55;12.18;;;;;;;11.44;69.20;98520.28;5050790;28;20111;-71
2022/11/09 08:18:39;;;;;;;23.20;12.50;;;;;;;11.46;68.54;98516.13;5070768;28;20114;-72
2022/11/09 08:21:04;;;;;;;20.55;11.52;;;;;;;11.52;68.46;98516.03;5069590;28;20035;-72
2022/11/09 08:23:30;;;;;;;20.90;12.05;;;;;;;11.53;68.61;98518.50;5071273;28;20059;-72
2022/11/09 08:25:56;;;;;;;24.35;12.05;;;;;;;11.54;68.00;98517.38;5070345;28;20041;-72
2022/11/09 08:28:21;;;;;;;21.17;12.13;;;;;;;11.55;68.58;98510.78;5070724;28;20029;-72
2022/11/09 08:30:55;;;;;;;20.38;11.77;;;;;;;11.57;68.32;98503.06;5070284;28;20116;-72
2022/11/09 08:33:20;;;;;;;20.90;12.77;;;;;;;11.59;68.36;98509.06;5066690;28;20032;-71
2022/11/09 08:35:46;;;;;;;21.58;11.65;;;;;;;11.60;68.65;98510.69;5069771;28;20385;-72
2022/11/09 08:38:11;;;;;;;24.55;12.35;;;;;;;11.61;67.53;98504.06;5069956;28;20077;-72
2022/11/09 08:40:36;;;;;;;19.48;11.25;;;;;;;11.57;67.60;98500.31;5069952;28;20124;-71
2022/11/09 08:43:04;;;;;;;22.75;12.88;;;;;;;11.57;67.64;98505.78;5071286;28;20439;-73
2022/11/09 08:45:35;;;;;;;22.10;12.45;;;;;;;11.60;68.46;98507.09;5071584;28;20075;-72
2022/11/09 08:48:02;;;;;;;19.67;12.05;;;;;;;11.60;67.75;98499.69;5067625;28;20032;-73
2022/11/09 08:50:29;;;;;;;23.40;12.18;;;;;;;11.64;68.06;98505.41;5051616;28;20036;-72
2022/11/09 08:52:55;;;;;;;22.20;12.35;;;;;;;11.64;67.87;98501.81;5070741;28;20051;-71
2022/11/09 08:55:21;;;;;;;20.73;12.07;;;;;;;11.62;67.14;98502.94;5066861;28;20052;-72
2022/11/09 08:57:47;;;;;;;22.63;12.43;;;;;;;11.62;67.30;98504.88;5068296;28;20021;-71
2022/11/09 09:00:13;;;;;;;22.20;12.77;;;;;;;11.59;67.71;98503.56;5069265;28;20089;-70
2022/11/09 09:02:39;;;;;;;25.13;12.90;;;;;;;11.58;67.77;98501.94;5069799;28;20065;-71
2022/11/09 09:05:04;;;;;;;21.83;11.68;;;;;;;11.59;67.60;98513.72;5067988;28;20024;-71
2022/11/09 09:07:30;;;;;;;21.83;11.90;;;;;;;11.60;68.05;98510.69;5060490;28;20067;-71
2022/11/09 09:09:55;;;;;;;21.58;11.65;;;;;;;11.65;68.23;98522.69;5065789;28;20024;-71
2022/11/09 09:12:20;;;;;;;22.83;12.25;;;;;;;11.69;68.08;98512.72;5069323;28;20699;-72
2022/11/09 09:14:46;;;;;;;22.70;12.65;;;;;;;11.72;67.41;98514.88;5069910;28;20032;-71
2022/11/09 09:17:12;;;;;;;23.73;12.90;;;;;;;11.72;66.90;98517.59;5069432;28;20020;-72
2022/11/09 09:19:37;;;;;;;24.45;13.57;;;;;;;11.73;67.64;98516.50;5069668;28;20103;-72
2022/11/09 09:22:02;;;;;;;26.98;13.80;;;;;;;11.75;67.23;98517.84;5068400;28;20021;-71
2022/11/09 09:24:28;;;;;;;21.80;12.07;;;;;;;11.80;67.22;98516.91;5049812;28;20161;-72
2022/11/09 09:26:53;;;;;;;22.63;12.65;;;;;;;11.82;67.09;98528.41;5069097;28;20051;-72
2022/11/09 09:29:19;;;;;;;24.02;12.27;;;;;;;11.83;67.24;98524.56;5070590;28;20495;-71
2022/11/09 09:31:44;;;;;;;22.55;11.93;;;;;;;11.84;67.24;98526.19;5069390;28;21673;-72
2022/11/09 09:34:11;;;;;;;21.25;12.10;;;;;;;11.88;67.08;98523.63;5070694;28;20543;-72
2022/11/09 09:36:37;;;;;;;21.40;12.05;;;;;;;11.96;67.21;98528.44;5070550;28;20516;-72
2022/11/09 09:39:03;;;;;;;20.17;11.00;;;;;;;12.00;66.66;98520.44;5070156;28;20480;-72
2022/11/09 09:41:34;;;;;;;22.58;12.32;;;;;;;12.01;66.57;98520.13;5069340;28;20039;-74
2022/11/09 09:44:40;;;;;;;20.60;11.38;;;;;;;12.04;66.87;98525.03;5070442;28;20036;-72
2022/11/09 09:47:23;;;;;;;19.40;11.10;;;;;;;12.10;66.77;98522.97;5067499;28;20028;-72
2022/11/09 09:49:53;;;;;;;20.27;11.55;;;;;;;12.14;67.18;98526.75;5068700;28;20021;-73
2022/11/09 09:52:40;;;;;;;20.77;11.60;;;;;;;12.18;66.57;98527.78;5050554;28;20625;-71
2022/11/09 09:55:18;;;;;;;20.95;12.02;;;;;;;12.19;66.11;98526.66;5068372;28;20028;-71
2022/11/09 09:57:49;;;;;;;21.40;11.57;;;;;;;12.20;65.85;98517.28;5067429;28;20027;-72
2022/11/09 10:00:23;;;;;;;22.38;11.85;;;;;;;12.20;66.17;98522.78;5068225;28;20479;-72
2022/11/09 10:02:50;;;;;;;20.08;10.82;;;;;;;12.25;66.10;98521.06;5068263;28;20020;-72
2022/11/09 10:05:17;;;;;;;20.02;10.73;;;;;;;12.27;66.00;98518.81;5070989;28;20016;-71
2022/11/09 10:07:54;;;;;;;18.15;10.23;;;;;;;12.31;65.79;98512.38;5070875;28;20029;-73
2022/11/09 10:10:38;;;;;;;22.33;11.13;;;;;;;12.37;66.09;98515.88;5069598;28;20032;-71
2022/11/09 10:13:15;;;;;;;20.13;10.90;;;;;;;12.42;65.76;98515.75;5051526;28;20029;-71
2022/11/09 10:16:13;;;;;;;20.75;11.90;;;;;;;12.45;65.65;98512.38;5068568;28;20098;-73
2022/11/09 10:18:59;;;;;;;20.42;11.38;;;;;;;12.50;65.17;98520.50;5065451;28;20370;-72
2022/11/09 10:21:28;;;;;;;20.02;11.05;;;;;;;12.51;65.29;98518.59;5066719;28;20117;-72
2022/11/09 10:24:03;;;;;;;20.98;10.85;;;;;;;12.55;65.81;98511.34;5066233;28;20035;-73
2022/11/09 10:26:45;;;;;;;18.40;10.15;;;;;;;12.64;66.07;98503.19;5069560;28;20044;-70
2022/11/09 10:29:29;;;;;;;17.40;9.48;;;;;;;12.71;65.62;98503.56;5068242;28;20067;-72
2022/11/09 10:32:00;;;;;;;16.20;9.27;;;;;;;12.80;65.72;98503.66;5068436;28;20028;-72
2022/11/09 10:34:51;;;;;;;17.50;9.48;;;;;;;12.88;65.62;98491.91;5067347;28;20052;-71
2022/11/09 10:37:27;;;;;;;16.35;9.00;;;;;;;12.95;65.01;98496.97;5069153;28;20059;-71
2022/11/09 10:40:03;;;;;;;18.35;9.93;;;;;;;13.00;64.46;98488.59;5069870;28;20035;-70
2022/11/09 10:42:28;;;;;;;17.48;9.27;;;;;;;13.04;64.40;98499.81;5066387;28;20102;-70
2022/11/09 10:44:54;;;;;;;16.73;9.32;;;;;;;13.06;64.46;98490.13;5070134;28;20029;-69
2022/11/09 10:47:21;;;;;;;16.58;9.52;;;;;;;13.09;64.04;98481.22;5070322;28;20032;-69
2022/11/09 10:50:13;;;;;;;16.75;9.45;;;;;;;13.12;63.70;98490.00;5052073;28;20045;-70
2022/11/09 10:52:38;;;;;;;15.90;9.25;;;;;;;13.15;63.77;98487.41;5067773;28;20020;-70
2022/11/09 10:55:21;;;;;;;17.75;8.68;;;;;;;13.17;63.95;98490.66;5070025;28;20028;-70
2022/11/09 10:58:01;;;;;;;17.75;8.63;;;;;;;13.21;64.13;98485.38;5070003;28;20131;-71
2022/11/09 11:00:26;;;;;;;;;;;;;;;13.25;63.60;98489.09;5068470;28;20044;-70
2022/11/09 11:02:53;;;;;;;18.35;9.05;;;;;;;13.26;63.92;98487.97;5067380;28;19913;-69
2022/11/09 11:05:18;;;;;;;14.90;8.45;;;;;;;13.30;63.70;98480.72;5067691;28;20209;-71
2022/11/09 11:07:45;;;;;;;16.27;8.60;;;;;;;13.32;62.83;98481.22;5066708;28;20115;-69
2022/11/09 11:10:19;;;;;;;14.88;8.60;;;;;;;13.32;63.28;98481.22;5065820;28;20024;-69
2022/11/09 11:12:59;;;;;;;15.30;8.32;;;;;;;13.35;63.35;98480.59;5067393;28;20115;-68
2022/11/09 11:15:27;;;;;;;16.60;8.98;;;;;;;13.37;62.93;98478.34;5068332;28;20020;-68
2022/11/09 11:18:01;;;;;;;16.27;8.98;;;;;;;13.42;63.35;98477.44;5068180;28;20039;-69
2022/11/09 11:20:32;;;;;;;17.40;8.93;;;;;;;13.47;62.69;98482.00;5066659;28;20423;-69
2022/11/09 11:23:21;;;;;;;16.02;8.75;;;;;;;13.51;62.76;98478.28;5067797;28;20039;-69
2022/11/09 11:25:52;;;;;;;14.57;8.20;;;;;;;13.58;62.08;98486.13;5065932;28;20040;-67
2022/11/09 11:28:58;;;;;;;15.52;8.75;;;;;;;13.62;61.96;98472.50;5066347;28;20044;-69